WetterOnline ( https://www.wetteronline.de )

Wetter aktuell Pfaffenweiler

Aktuelles Wetter: Freiburg/Flugplatz (236m)

6-stündlich | Neueste Meldungen
Ortszeit Temperatur Wetter
Mi, 24.04. 20:00 9.7° C leichter Regen
Mi, 24.04. 14:00 22.4° C leicht bewölkt
Mi, 24.04. 8:00 13.1° C bedeckt
Mi, 24.04. 2:00 9.5° C wolkig
Di, 23.04. 20:00 20.5° C leicht bewölkt
Di, 23.04. 14:00 19.9° C wolkig
Di, 23.04. 8:00 11.2° C bewölkt
Di, 23.04. 2:00 19.4° C wolkig
Ortszeit Temperatur Wetter
Mi, 24.04. 23:30 6.4° C wolkig
Mi, 24.04. 23:20 6.4° C wolkig
Mi, 24.04. 23:10 6.5° C leicht bewölkt
Mi, 24.04. 23:00 6.9° C fast wolkenlos
Mi, 24.04. 22:50 6.9° C fast wolkenlos
Mi, 24.04. 22:40 6.6° C fast wolkenlos
Mi, 24.04. 22:30 7.4° C wolkenlos
Mi, 24.04. 22:00 8.3° C fast wolkenlos
Mi, 24.04. 21:30 9.0° C wolkenlos
Mi, 24.04. 21:00 9.0° C leicht bewölkt
Mi, 24.04. 20:30 9.6° C wolkig
Ortszeit Relative Feuchte Sichtweite
Mi, 24.04. 20:00 81% 15 km
Mi, 24.04. 14:00 47% 24 km
Mi, 24.04. 8:00 72% 30 km
Mi, 24.04. 2:00 87% 24 km
Di, 23.04. 20:00 42% 40 km
Di, 23.04. 14:00 44% 35 km
Di, 23.04. 8:00 68% 35 km
Di, 23.04. 2:00 32% 60 km
Ortszeit Relative Feuchte Sichtweite
Mi, 24.04. 23:30 95% 17 km
Mi, 24.04. 23:20 95% -
Mi, 24.04. 23:10 95% -
Mi, 24.04. 23:00 94% 60 km
Mi, 24.04. 22:50 94% -
Mi, 24.04. 22:40 95% -
Mi, 24.04. 22:30 94% 50 km
Mi, 24.04. 22:00 88% 50 km
Mi, 24.04. 21:30 85% 70 km
Mi, 24.04. 21:00 85% 70 km
Mi, 24.04. 20:30 82% 70 km
Ortszeit Niederschlagsmenge Niederschlagsart
Mi, 24.04. 20:00 3 l/m2 in 12 Std. Regen
Mi, 24.04. 14:00 0.0 l/m2 in 6 Std. -
Mi, 24.04. 8:00 0.0 l/m2 in 12 Std. -
Mi, 24.04. 2:00 0.0 l/m2 in 6 Std. -
Di, 23.04. 20:00 0.0 l/m2 in 12 Std. -
Di, 23.04. 14:00 0.0 l/m2 in 6 Std. -
Di, 23.04. 8:00 0.0 l/m2 in 12 Std. -
Di, 23.04. 2:00 0.0 l/m2 in 6 Std. -
Ortszeit Niederschlagsmenge Niederschlagsart
Mi, 24.04. 23:30 0.0 l/m2 in 1 Std. -
Mi, 24.04. 23:20 keine Meldung -
Mi, 24.04. 23:10 keine Meldung -
Mi, 24.04. 23:00 0.1 l/m2 in 1 Std. Regen
Mi, 24.04. 22:50 keine Meldung -
Mi, 24.04. 22:40 keine Meldung -
Mi, 24.04. 22:30 0.0 l/m2 in 1 Std. -
Mi, 24.04. 22:00 0.0 l/m2 in 1 Std. -
Mi, 24.04. 21:30 0.0 l/m2 in 1 Std. -
Mi, 24.04. 21:00 0.2 l/m2 in 1 Std. Regen
Mi, 24.04. 20:30 0.2 l/m2 in 1 Std. Schneeregen
Ortszeit Stärke Spitze Richtung
km/h Bft. km/h Grad Sektor
Mi, 24.04. 20:00 11 2 90 220° SW
Mi, 24.04. 14:00 15 3 28 320° NW
Mi, 24.04. 8:00 2 1 9 340° N
Mi, 24.04. 2:00 4 1 11 340° N
Di, 23.04. 20:00 7 2 18 340° N
Di, 23.04. 14:00 9 2 19 240° SW
Di, 23.04. 8:00 4 1 18 340° N
Di, 23.04. 2:00 11 2 25 130° SO
Ortszeit Stärke Spitze Richtung
km/h Bft. km/h Grad Sektor
Mi, 24.04. 23:30 4 1 7 350° N
Mi, 24.04. 23:20 4 1 - 350° N
Mi, 24.04. 23:10 4 1 - 340° N
Mi, 24.04. 23:00 7 2 9 330° NW
Mi, 24.04. 22:50 7 2 - 330° NW
Mi, 24.04. 22:40 6 1 - 360° N
Mi, 24.04. 22:30 4 1 7 350° N
Mi, 24.04. 22:00 4 1 22 10° N
Mi, 24.04. 21:30 7 2 22 100° O
Mi, 24.04. 21:00 7 2 17 90° O
Mi, 24.04. 20:30 9 2 17 80° O
Ortszeit Untergrenze Bedeckung Gattung
total tief tief mittel hoch
Mi, 24.04. 20:00 <30 m 8/8 0/8 - - -
Mi, 24.04. 14:00 9000 m 6/8 0/8 - - -
Mi, 24.04. 8:00 3600 m 8/8 8/8 - - -
Mi, 24.04. 2:00 5100 m 5/8 4/8 - - -
Di, 23.04. 20:00 4500 m 2/8 2/8 - - -
Di, 23.04. 14:00 5100 m 8/8 8/8 - - -
Di, 23.04. 8:00 3900 m 8/8 4/8 - - -
Di, 23.04. 2:00 8100 m 8/8 0/8 - - -
Ortszeit Bedeckungsgrad in Achtel und Wolkenuntergrenze
Mi, 24.04. 23:30 7(7500m)
Mi, 24.04. 23:20 7(7500m)
Mi, 24.04. 23:10 1(3900m) 6(7500m)
Mi, 24.04. 23:00 1(7800m) 4(7800m)
Mi, 24.04. 22:50 1(7800m)
Mi, 24.04. 22:40 1(7800m)
Mi, 24.04. 22:30 keine Wolken
Mi, 24.04. 22:00 1(2700m)
Mi, 24.04. 21:30 keine Wolken
Mi, 24.04. 21:00 1(3600m) 3(6600m)
Mi, 24.04. 20:30 2(1470m) 6(3300m) 8(4200m)
Ortszeit Luftdruck NN (hPa) Tendenz (hPa in 3 Std.)
Mi, 24.04. 20:00 1011 + 5,7
Mi, 24.04. 14:00 1000 - 1,4
Mi, 24.04. 8:00 1002 + 1,1
Mi, 24.04. 2:00 999 + 0,9
Di, 23.04. 20:00 996 - 0,1
Di, 23.04. 14:00 997 + 0,2
Di, 23.04. 8:00 998 + 0,1
Di, 23.04. 2:00 998 - 1,3
Ortszeit Luftdruck NN (hPa) Tendenz (hPa in 3 Std.)
Mi, 24.04. 23:30 1009 - 0,3
Mi, 24.04. 23:20 1009 keine Meldung
Mi, 24.04. 23:10 1009 keine Meldung
Mi, 24.04. 23:00 1009 - 1,5
Mi, 24.04. 22:50 1009 keine Meldung
Mi, 24.04. 22:40 1009 keine Meldung
Mi, 24.04. 22:30 1009 - 2,5
Mi, 24.04. 22:00 1009 - 2,0
Mi, 24.04. 21:30 1009 - 1,6
Mi, 24.04. 21:00 1009 + 0,3
Mi, 24.04. 20:30 1009 + 2,5
Ortszeit Schneehöhe (cm)
Mi, 24.04. 20:00 0
Mi, 24.04. 14:00 0
Mi, 24.04. 8:00 0
Mi, 24.04. 2:00 0
Di, 23.04. 20:00 0
Di, 23.04. 14:00 0
Di, 23.04. 8:00 0
Di, 23.04. 2:00 0
Ortszeit Schneehöhe (cm)
Mi, 24.04. 23:30 0
Mi, 24.04. 23:20 0
Mi, 24.04. 23:10 0
Mi, 24.04. 23:00 0
Mi, 24.04. 22:50 0
Mi, 24.04. 22:40 0
Mi, 24.04. 22:30 0
Mi, 24.04. 22:00 0
Mi, 24.04. 21:30 0
Mi, 24.04. 21:00 0
Mi, 24.04. 20:30 0
Link zu dieser Seite / Seite empfehlen

Das Wetter in ...